Time;durP1;ratioP1;P1;durP2;ratioP2;P2;SDS_P1;SDS_P2;PMS_P1;PMS_P2;Temp;Humidity;BMP_temperature;BMP_pressure;BME280_temperature;BME280_humidity;BME280_pressure;Samples;Min_cycle;Max_cycle;Signal;HPM_P1;HPM_P2
2024/01/30 00:00:51;;;;;;;8.73;7.33;;;;;;;8.30;75.69;102069.97;5032898;28;20210;-77
2024/01/30 00:03:19;;;;;;;7.77;7.17;;;;;;;8.28;75.20;102085.53;5034216;28;20264;-77
2024/01/30 00:05:45;;;;;;;7.73;7.00;;;;;;;8.34;75.64;102089.97;5033362;28;20647;-77
2024/01/30 00:08:11;;;;;;;7.63;7.03;;;;;;;8.29;75.12;102091.63;5032942;28;20233;-77
2024/01/30 00:10:38;;;;;;;7.87;7.27;;;;;;;8.15;75.34;102097.47;5031559;28;20248;-77
2024/01/30 00:13:06;;;;;;;8.40;7.27;;;;;;;8.20;75.42;102088.88;5024893;28;20261;-77
2024/01/30 00:15:32;;;;;;;7.30;6.70;;;;;;;8.20;75.31;102086.25;5032506;28;20235;-77
2024/01/30 00:17:58;;;;;;;6.77;6.27;;;;;;;8.13;75.56;102090.50;5032672;28;20214;-77
2024/01/30 00:20:25;;;;;;;6.87;6.27;;;;;;;8.10;75.27;102087.81;5031944;28;20261;-77
2024/01/30 00:22:51;;;;;;;6.90;6.23;;;;;;;7.94;75.70;102078.88;5032297;28;20643;-77
2024/01/30 00:25:17;;;;;;;6.50;5.90;;;;;;;7.86;76.48;102072.66;5031889;28;20230;-77
2024/01/30 00:27:44;;;;;;;6.40;5.97;;;;;;;7.82;76.53;102065.66;5032240;28;20205;-77
2024/01/30 00:30:13;;;;;;;7.33;6.73;;;;;;;7.78;77.21;102049.13;5023590;28;20202;-77
2024/01/30 00:32:40;;;;;;;8.20;7.50;;;;;;;7.68;77.91;102044.59;5032533;28;20206;-76
2024/01/30 00:35:06;;;;;;;7.93;6.93;;;;;;;7.47;78.36;102024.25;5032222;28;20230;-77
2024/01/30 00:37:33;;;;;;;8.93;7.67;;;;;;;7.58;79.36;101993.31;5032241;28;20207;-77
2024/01/30 00:39:59;;;;;;;7.90;7.30;;;;;;;7.52;79.54;101981.06;5031374;28;20210;-76
2024/01/30 00:42:26;;;;;;;9.33;8.43;;;;;;;7.47;80.78;101960.22;5026904;28;20253;-77
2024/01/30 00:44:53;;;;;;;8.47;7.80;;;;;;;7.61;80.41;101930.97;5028665;28;20270;-76
2024/01/30 00:47:21;;;;;;;9.13;7.37;;;;;;;7.69;80.34;101918.97;5031729;28;20217;-77
2024/01/30 00:49:47;;;;;;;7.63;7.00;;;;;;;7.75;80.28;101917.38;5031408;28;20206;-77
2024/01/30 00:52:13;;;;;;;8.27;7.47;;;;;;;7.87;79.23;101928.81;5035726;28;20203;-77
2024/01/30 00:54:40;;;;;;;8.70;7.80;;;;;;;7.89;80.37;101945.34;5012182;28;20778;-77
2024/01/30 00:57:06;;;;;;;7.80;7.20;;;;;;;7.95;79.25;101935.91;5013215;28;20211;-76
2024/01/30 00:59:33;;;;;;;8.33;7.53;;;;;;;7.90;79.16;101947.06;5025864;28;20293;-77
2024/01/30 01:01:59;;;;;;;9.87;7.43;;;;;;;7.87;79.33;101958.31;5031778;28;20677;-77
2024/01/30 01:04:27;;;;;;;7.43;6.73;;;;;;;7.93;78.99;101966.19;5030943;28;20207;-76
2024/01/30 01:06:53;;;;;;;7.17;6.60;;;;;;;7.99;78.36;101974.94;5030835;28;20293;-77
2024/01/30 01:09:20;;;;;;;7.13;6.63;;;;;;;7.87;78.23;102010.28;5032640;28;20206;-77
2024/01/30 01:11:46;;;;;;;7.43;6.73;;;;;;;7.89;78.29;102011.19;5031173;28;20647;-77
2024/01/30 01:14:12;;;;;;;6.80;6.20;;;;;;;7.89;78.05;102016.41;5030862;28;20747;-77
2024/01/30 01:16:39;;;;;;;8.20;7.40;;;;;;;7.81;77.74;102014.50;5032321;28;20234;-76
2024/01/30 01:19:05;;;;;;;7.87;7.17;;;;;;;7.89;77.94;102012.94;5033503;28;20202;-77
2024/01/30 01:21:33;;;;;;;7.77;6.43;;;;;;;7.82;78.29;102022.31;5036915;28;20263;-77
2024/01/30 01:23:59;;;;;;;8.13;7.43;;;;;;;7.84;78.56;102011.97;5015175;28;20281;-76
2024/01/30 01:26:25;;;;;;;8.47;7.80;;;;;;;7.79;78.73;102001.50;5010593;28;20227;-77
2024/01/30 01:28:52;;;;;;;7.37;6.67;;;;;;;7.86;78.63;101982.53;5019959;28;20257;-77
2024/01/30 01:31:18;;;;;;;7.87;7.13;;;;;;;7.87;78.28;101993.78;5030690;28;20210;-77
2024/01/30 01:33:44;;;;;;;7.43;6.83;;;;;;;7.83;78.53;101990.28;5031393;28;20216;-77
2024/01/30 01:36:11;;;;;;;8.30;7.60;;;;;;;7.63;78.84;101987.34;5030531;28;20226;-77
2024/01/30 01:38:38;;;;;;;9.20;8.30;;;;;;;7.65;79.70;101964.84;5030900;28;20256;-77
2024/01/30 01:41:05;;;;;;;7.40;6.70;;;;;;;7.76;79.01;101958.09;5031344;28;20256;-77
2024/01/30 01:43:31;;;;;;;7.73;7.10;;;;;;;7.69;79.60;101955.38;5030654;28;20267;-77
2024/01/30 01:45:58;;;;;;;9.80;9.00;;;;;;;7.73;80.65;101944.16;5029954;28;20226;-77
2024/01/30 01:48:26;;;;;;;8.67;7.20;;;;;;;7.85;80.68;101931.41;5030960;28;20206;-77
2024/01/30 01:50:53;;;;;;;8.63;7.93;;;;;;;7.89;80.37;101928.00;5030699;28;20206;-76
2024/01/30 01:53:20;;;;;;;7.70;7.00;;;;;;;7.95;79.33;101948.03;5034698;28;20612;-77
2024/01/30 01:55:48;;;;;;;8.20;7.40;;;;;;;7.87;79.56;101952.19;5019138;28;20258;-77
2024/01/30 01:58:15;;;;;;;9.13;8.13;;;;;;;7.97;79.50;101941.13;5022607;28;20252;-77
2024/01/30 02:00:41;;;;;;;9.83;7.57;;;;;;;7.90;78.79;101950.53;5029760;28;20206;-77
2024/01/30 02:03:09;;;;;;;8.77;8.07;;;;;;;7.93;80.11;101926.31;5036763;28;20209;-77
2024/01/30 02:05:36;;;;;;;8.07;7.47;;;;;;;7.98;79.18;101935.06;5025296;28;20281;-77
2024/01/30 02:08:03;;;;;;;9.43;8.63;;;;;;;7.83;79.96;101934.81;5030801;28;20263;-77
2024/01/30 02:10:29;;;;;;;8.70;8.00;;;;;;;7.92;79.36;101933.22;5029993;28;20209;-77
2024/01/30 02:12:58;;;;;;;8.53;7.80;;;;;;;7.95;80.03;101927.22;5030534;28;20213;-77
2024/01/30 02:15:25;;;;;;;9.87;8.97;;;;;;;7.81;80.58;101923.50;5030371;28;20292;-77
2024/01/30 02:17:51;;;;;;;8.03;7.43;;;;;;;7.85;80.37;101912.31;5038729;28;20221;-76
2024/01/30 02:20:18;;;;;;;8.03;7.43;;;;;;;7.92;80.53;101908.97;5033003;28;20285;-77
2024/01/30 02:22:45;;;;;;;8.33;7.50;;;;;;;7.94;80.17;101902.94;5035153;28;20234;-77
2024/01/30 02:25:12;;;;;;;9.17;8.37;;;;;;;7.93;81.21;101888.19;5035065;28;20226;-76
2024/01/30 02:27:38;;;;;;;8.83;8.03;;;;;;;7.99;80.69;101891.72;5034858;28;20213;-77
2024/01/30 02:30:06;;;;;;;8.80;8.00;;;;;;;8.05;80.37;101886.66;5033449;28;20206;-77
2024/01/30 02:32:32;;;;;;;8.53;7.83;;;;;;;8.05;80.29;101900.50;5035279;28;20210;-77
2024/01/30 02:34:59;;;;;;;8.60;7.97;;;;;;;8.10;80.29;101898.84;5034970;28;20230;-77
2024/01/30 02:37:25;;;;;;;8.13;7.43;;;;;;;7.95;80.19;101896.88;5034458;28;20206;-77
2024/01/30 02:39:53;;;;;;;8.40;7.70;;;;;;;8.00;80.16;101885.69;5034506;28;20264;-77
2024/01/30 02:42:19;;;;;;;9.37;8.67;;;;;;;7.95;80.93;101877.81;5025941;28;20206;-77
2024/01/30 02:44:45;;;;;;;9.93;9.03;;;;;;;7.96;81.44;101866.56;5033932;28;20716;-77
2024/01/30 02:47:12;;;;;;;9.10;8.30;;;;;;;7.89;80.69;101875.13;5033645;28;20751;-77
2024/01/30 02:49:38;;;;;;;8.60;7.90;;;;;;;7.86;81.44;101857.75;5034310;28;20210;-77
2024/01/30 02:52:05;;;;;;;9.63;8.73;;;;;;;7.99;81.13;101851.00;5034723;28;20284;-76
2024/01/30 02:54:31;;;;;;;9.67;8.77;;;;;;;7.93;80.33;101856.13;5033915;28;20265;-77
2024/01/30 02:56:59;;;;;;;8.30;7.70;;;;;;;7.93;80.83;101858.72;5033974;28;20263;-77
2024/01/30 02:59:25;;;;;;;8.87;8.20;;;;;;;8.15;79.78;101850.38;5032378;28;20207;-76
2024/01/30 03:01:52;;;;;;;8.37;7.57;;;;;;;8.24;79.31;101872.16;5034061;28;20269;-77
2024/01/30 03:04:19;;;;;;;7.87;7.27;;;;;;;8.37;78.35;101887.09;5032777;28;20261;-77
2024/01/30 03:06:47;;;;;;;7.67;7.07;;;;;;;8.33;78.61;101906.97;5033710;28;20222;-77
2024/01/30 03:09:13;;;;;;;8.37;7.57;;;;;;;8.33;78.38;101913.91;5033708;28;20245;-77
2024/01/30 03:11:40;;;;;;;8.97;7.67;;;;;;;8.20;78.96;101912.84;5026154;28;20576;-77
2024/01/30 03:14:08;;;;;;;8.57;7.87;;;;;;;8.29;78.64;101906.94;5032948;28;20668;-77
2024/01/30 03:16:34;;;;;;;7.33;6.67;;;;;;;8.33;77.68;101932.13;5033279;28;20234;-77
2024/01/30 03:19:01;;;;;;;7.47;6.77;;;;;;;8.31;78.13;101926.03;5034079;28;20206;-77
2024/01/30 03:21:28;;;;;;;8.73;7.80;;;;;;;8.10;78.54;101931.78;5033716;28;20207;-76
2024/01/30 03:23:54;;;;;;;8.97;7.10;;;;;;;8.28;78.50;101933.78;5033606;28;20198;-76
2024/01/30 03:26:20;;;;;;;8.23;7.63;;;;;;;8.27;77.97;101927.72;5033471;28;20276;-77
2024/01/30 03:28:47;;;;;;;7.73;7.03;;;;;;;8.25;78.21;101936.34;5032999;28;20203;-77
2024/01/30 03:31:16;;;;;;;8.50;7.60;;;;;;;8.21;77.89;101927.63;5033064;28;20207;-76
2024/01/30 03:33:43;;;;;;;8.67;7.87;;;;;;;8.10;78.54;101930.03;5034034;28;20204;-77
2024/01/30 03:36:10;;;;;;;7.47;6.87;;;;;;;8.20;77.66;101920.66;5032493;28;20264;-77
2024/01/30 03:38:36;;;;;;;8.00;7.33;;;;;;;8.31;77.61;101929.50;5038242;28;20206;-77
2024/01/30 03:41:03;;;;;;;7.60;7.00;;;;;;;8.19;77.65;101937.13;5029220;28;20206;-76
2024/01/30 03:43:29;;;;;;;8.23;7.53;;;;;;;8.27;77.23;101943.31;5021661;28;20200;-77
2024/01/30 03:45:56;;;;;;;7.83;7.13;;;;;;;8.33;77.07;101951.22;5013310;28;20219;-77
2024/01/30 03:48:26;;;;;;;7.90;7.20;;;;;;;8.41;76.94;101953.97;5033182;28;20347;-77
2024/01/30 03:50:53;;;;;;;8.40;7.57;;;;;;;8.35;76.23;101972.91;5031545;28;20210;-77
2024/01/30 03:53:19;;;;;;;7.70;7.10;;;;;;;8.31;76.85;101968.53;5013068;28;20334;-77
2024/01/30 03:55:45;;;;;;;7.47;6.77;;;;;;;8.32;76.56;101966.78;5012700;28;20270;-77
2024/01/30 03:58:12;;;;;;;7.57;6.97;;;;;;;8.37;76.60;101974.69;5013452;28;20575;-77
2024/01/30 04:00:38;;;;;;;7.73;7.07;;;;;;;8.40;76.12;101985.13;5012306;28;20199;-77
2024/01/30 04:03:05;;;;;;;7.90;7.30;;;;;;;8.36;75.86;101989.41;5013522;28;20203;-77
2024/01/30 04:05:33;;;;;;;7.87;7.27;;;;;;;8.42;75.88;101999.06;5025414;28;20708;-77
2024/01/30 04:08:00;;;;;;;7.77;7.00;;;;;;;8.35;76.01;102003.28;5033212;28;20198;-77
2024/01/30 04:10:26;;;;;;;7.90;7.27;;;;;;;8.29;75.90;101995.38;5025036;28;20703;-77
2024/01/30 04:12:53;;;;;;;7.10;6.47;;;;;;;8.21;76.47;101997.84;5026079;28;20211;-77
2024/01/30 04:15:20;;;;;;;8.33;7.70;;;;;;;8.28;76.29;101983.22;5032676;28;20282;-77
2024/01/30 04:17:46;;;;;;;6.97;6.37;;;;;;;8.08;76.30;101986.34;5033355;28;20260;-77
2024/01/30 04:20:15;;;;;;;7.87;6.70;;;;;;;8.07;76.64;101975.97;5033497;28;20734;-77
2024/01/30 04:22:43;;;;;;;7.33;6.73;;;;;;;7.87;77.43;101962.59;5033492;28;20224;-75
2024/01/30 04:25:09;;;;;;;7.60;7.00;;;;;;;7.86;77.01;101950.47;5034532;28;20222;-77
2024/01/30 04:27:36;;;;;;;7.13;6.53;;;;;;;7.84;77.25;101950.44;5034191;28;20681;-77
2024/01/30 04:30:02;;;;;;;7.50;6.90;;;;;;;7.84;77.33;101953.03;5032896;28;20685;-77
2024/01/30 04:32:28;;;;;;;8.40;6.93;;;;;;;7.86;77.78;101953.06;5024919;28;20206;-77
2024/01/30 04:34:55;;;;;;;7.57;6.90;;;;;;;7.83;77.32;101951.31;5034103;28;20222;-77
2024/01/30 04:37:21;;;;;;;9.47;7.37;;;;;;;7.78;78.08;101939.06;5033430;28;20280;-77
2024/01/30 04:39:49;;;;;;;6.83;6.23;;;;;;;7.82;77.57;101939.13;5033873;28;20232;-77
2024/01/30 04:42:15;;;;;;;8.43;6.50;;;;;;;7.76;77.11;101958.09;5033813;28;20206;-77
2024/01/30 04:44:41;;;;;;;7.63;7.00;;;;;;;7.68;77.22;101953.63;5033145;28;20651;-77
2024/01/30 04:47:08;;;;;;;7.03;6.33;;;;;;;7.71;77.62;101953.66;5033701;28;20261;-77
2024/01/30 04:49:35;;;;;;;6.67;6.17;;;;;;;7.71;77.17;101957.16;5033578;28;20206;-77
2024/01/30 04:52:01;;;;;;;7.80;7.10;;;;;;;7.65;77.48;101969.16;5033600;28;20256;-77
2024/01/30 04:54:27;;;;;;;7.90;7.27;;;;;;;7.53;77.47;101965.50;5036161;28;20228;-77
2024/01/30 04:56:55;;;;;;;7.87;7.17;;;;;;;7.54;77.72;101951.66;5023290;28;20219;-77
2024/01/30 04:59:21;;;;;;;8.27;7.53;;;;;;;7.50;79.21;101930.78;5013898;28;20207;-77
2024/01/30 05:01:48;;;;;;;7.67;7.17;;;;;;;7.48;78.87;101922.97;5013542;28;20202;-77
2024/01/30 05:04:14;;;;;;;9.90;8.47;;;;;;;7.59;78.94;101902.38;5013249;28;20203;-77
2024/01/30 05:06:41;;;;;;;7.90;7.07;;;;;;;7.64;78.55;101905.91;5013377;28;20223;-78
2024/01/30 05:09:07;;;;;;;7.83;7.10;;;;;;;7.71;77.88;101912.06;5012783;28;20199;-77
2024/01/30 05:11:38;;;;;;;7.77;6.77;;;;;;;7.70;78.08;101924.22;5027673;28;20249;-78
2024/01/30 05:14:05;;;;;;;8.60;7.80;;;;;;;7.74;77.93;101931.19;5040063;28;20206;-78
2024/01/30 05:16:34;;;;;;;8.33;7.50;;;;;;;7.75;77.26;101930.38;5024229;28;20681;-77
2024/01/30 05:19:03;;;;;;;7.40;6.70;;;;;;;7.60;77.39;101934.44;5033140;28;20259;-77
2024/01/30 05:21:29;;;;;;;8.50;7.70;;;;;;;7.52;78.88;101921.31;5033359;28;20202;-77
2024/01/30 05:23:55;;;;;;;7.70;7.07;;;;;;;7.54;78.65;101917.00;5033290;28;20203;-77
2024/01/30 05:26:22;;;;;;;8.57;7.77;;;;;;;7.51;79.32;101911.75;5032690;28;20292;-78
2024/01/30 05:28:49;;;;;;;8.70;7.97;;;;;;;7.51;79.12;101899.66;5032477;28;20229;-77
2024/01/30 05:31:16;;;;;;;8.23;7.27;;;;;;;7.34;79.44;101899.34;5033106;28;20203;-78
2024/01/30 05:33:43;;;;;;;9.30;8.40;;;;;;;7.31;80.09;101872.44;5033328;28;20207;-77
2024/01/30 05:36:09;;;;;;;9.33;8.33;;;;;;;7.38;80.50;101855.25;5032643;28;20234;-77
2024/01/30 05:38:36;;;;;;;8.60;7.80;;;;;;;7.50;79.68;101856.31;5032867;28;20202;-77
2024/01/30 05:41:02;;;;;;;7.97;7.30;;;;;;;7.59;78.86;101865.09;5033729;28;20283;-77
2024/01/30 05:43:29;;;;;;;8.93;7.70;;;;;;;7.61;79.19;101873.81;5037857;28;20202;-76
2024/01/30 05:45:55;;;;;;;8.37;7.37;;;;;;;7.56;79.24;101885.00;5037594;28;20230;-77
2024/01/30 05:48:23;;;;;;;8.67;7.80;;;;;;;7.68;78.41;101889.53;5037966;28;20264;-77
2024/01/30 05:50:49;;;;;;;8.83;8.13;;;;;;;7.71;78.23;101901.69;5034026;28;20220;-76
2024/01/30 05:53:15;;;;;;;9.33;8.30;;;;;;;7.64;78.87;101902.44;5031546;28;20584;-76
2024/01/30 05:55:42;;;;;;;8.30;7.50;;;;;;;7.73;77.83;101908.69;5030450;28;20697;-75
2024/01/30 05:58:08;;;;;;;8.87;8.07;;;;;;;7.73;77.58;101912.97;5032798;28;20210;-79
2024/01/30 06:00:34;;;;;;;9.13;8.23;;;;;;;7.61;78.31;101925.78;5022177;28;20203;-76
2024/01/30 06:03:01;;;;;;;9.43;7.93;;;;;;;7.68;77.66;101914.66;5030196;28;20199;-75
2024/01/30 06:05:28;;;;;;;9.83;8.60;;;;;;;7.75;77.41;101921.72;5031135;28;20284;-76
2024/01/30 06:07:55;;;;;;;8.77;7.93;;;;;;;7.82;77.47;101931.34;5030206;28;20206;-77
2024/01/30 06:10:21;;;;;;;9.13;8.43;;;;;;;7.88;77.52;101947.03;5032058;28;20260;-78
2024/01/30 06:12:48;;;;;;;8.43;7.63;;;;;;;7.96;76.85;101952.34;5032711;28;20198;-78
2024/01/30 06:15:14;;;;;;;9.00;8.20;;;;;;;7.91;76.51;101975.69;5031791;28;20238;-76
2024/01/30 06:17:41;;;;;;;9.73;7.83;;;;;;;7.92;76.80;101974.81;5032323;28;20322;-77
2024/01/30 06:20:08;;;;;;;8.30;7.60;;;;;;;7.91;76.60;101978.28;5030794;28;20699;-77
2024/01/30 06:22:35;;;;;;;11.50;7.77;;;;;;;7.84;77.18;101986.81;5031417;28;20207;-76
2024/01/30 06:25:02;;;;;;;10.30;8.37;;;;;;;7.90;76.70;101970.47;5030943;28;20222;-76
2024/01/30 06:27:28;;;;;;;7.33;6.73;;;;;;;7.94;78.64;101944.53;5032156;28;20666;-77
2024/01/30 06:29:55;;;;;;;7.20;6.53;;;;;;;8.05;80.67;101894.44;5031624;28;20711;-77
2024/01/30 06:32:22;;;;;;;10.50;9.57;;;;;;;7.96;79.77;101889.97;5032012;28;20206;-76
2024/01/30 06:34:48;;;;;;;7.50;6.83;;;;;;;7.90;78.06;101895.94;5032410;28;20222;-78
2024/01/30 06:37:14;;;;;;;7.60;6.97;;;;;;;7.84;80.36;101889.78;5032670;28;20218;-77
2024/01/30 06:39:42;;;;;;;8.27;7.47;;;;;;;7.83;79.84;101854.22;5032357;28;20623;-76
2024/01/30 06:42:09;;;;;;;7.07;6.30;;;;;;;7.68;78.07;101860.94;5031789;28;20206;-77
2024/01/30 06:44:35;;;;;;;7.00;6.40;;;;;;;7.62;79.24;101879.03;5030892;28;20198;-78
2024/01/30 06:47:01;;;;;;;9.10;7.40;;;;;;;7.61;78.69;101879.91;5032354;28;20225;-76
2024/01/30 06:49:28;;;;;;;9.87;8.57;;;;;;;7.73;82.32;101846.31;5032167;28;20202;-77
2024/01/30 06:51:54;;;;;;;11.27;7.60;;;;;;;7.75;80.95;101815.13;5035044;28;20257;-77
2024/01/30 06:54:20;;;;;;;8.53;7.03;;;;;;;7.65;79.71;101832.31;5012781;28;20234;-78
2024/01/30 06:56:48;;;;;;;7.83;7.13;;;;;;;7.63;79.09;101853.91;5012993;28;20290;-77
2024/01/30 06:59:16;;;;;;;10.47;7.20;;;;;;;7.52;77.94;101870.19;5011589;28;20622;-78
2024/01/30 07:01:43;;;;;;;7.40;6.70;;;;;;;7.51;79.64;101858.09;5011216;28;20207;-77
2024/01/30 07:04:09;;;;;;;7.33;6.73;;;;;;;7.50;79.66;101861.50;5030124;28;20210;-78
2024/01/30 07:06:54;;;;;;;7.77;7.07;;;;;;;7.51;79.31;101849.38;5035838;28;20218;-78
2024/01/30 07:09:23;;;;;;;7.43;6.73;;;;;;;7.48;78.78;101862.34;5036086;28;20206;-78
2024/01/30 07:11:58;;;;;;;7.27;6.53;;;;;;;7.50;80.31;101842.47;5036450;28;20208;-78
2024/01/30 07:14:27;;;;;;;6.90;6.30;;;;;;;7.52;79.78;101832.97;5036363;28;20228;-78
2024/01/30 07:16:57;;;;;;;7.67;6.90;;;;;;;7.55;79.88;101836.50;5037204;28;20229;-78
2024/01/30 07:19:23;;;;;;;8.27;7.57;;;;;;;7.54;80.20;101833.84;5035584;28;20294;-77
2024/01/30 07:21:49;;;;;;;8.52;7.72;;;;;;;7.50;80.33;101819.94;5039717;28;20469;-78
2024/01/30 07:24:16;;;;;;;8.33;7.43;;;;;;;7.37;80.15;101833.56;5016186;28;20199;-77
2024/01/30 07:26:42;;;;;;;6.60;6.07;;;;;;;7.55;80.27;101828.69;5016747;28;20642;-78
2024/01/30 07:29:10;;;;;;;7.53;6.53;;;;;;;7.56;80.58;101830.44;5015930;28;20199;-77
2024/01/30 07:31:36;;;;;;;7.83;7.10;;;;;;;7.58;80.56;101822.66;5016505;28;20219;-76
2024/01/30 07:34:03;;;;;;;6.83;6.13;;;;;;;7.54;78.51;101833.84;5015781;28;20258;-78
2024/01/30 07:36:29;;;;;;;8.37;7.67;;;;;;;7.51;79.20;101859.78;5014022;28;20262;-77
2024/01/30 07:38:56;;;;;;;7.50;6.90;;;;;;;7.45;79.38;101864.88;5014489;28;20257;-76
2024/01/30 07:41:22;;;;;;;7.93;7.23;;;;;;;7.53;79.12;101864.19;5027034;28;20206;-77
2024/01/30 07:43:49;;;;;;;8.23;7.10;;;;;;;7.51;78.70;101858.09;5034337;28;20203;-77
2024/01/30 07:46:16;;;;;;;7.40;6.70;;;;;;;7.58;79.03;101864.25;5034957;28;20277;-76
2024/01/30 07:48:43;;;;;;;8.13;7.53;;;;;;;7.62;79.11;101871.22;5026248;28;20712;-76
2024/01/30 07:51:12;;;;;;;8.60;7.80;;;;;;;7.56;79.81;101860.75;5033738;28;20333;-75
2024/01/30 07:53:38;;;;;;;7.97;7.30;;;;;;;7.63;79.23;101851.31;5033577;28;20265;-75
2024/01/30 07:56:06;;;;;;;7.77;7.17;;;;;;;7.72;78.67;101857.53;5025227;28;20588;-75
2024/01/30 07:58:33;;;;;;;7.70;7.00;;;;;;;7.73;78.59;101866.19;5027508;28;20248;-76
2024/01/30 08:01:00;;;;;;;7.87;7.20;;;;;;;7.76;78.35;101877.53;5024437;28;20206;-76
2024/01/30 08:03:28;;;;;;;7.37;6.87;;;;;;;7.82;77.76;101884.53;5025753;28;20209;-76
2024/01/30 08:05:54;;;;;;;7.43;6.73;;;;;;;7.81;77.84;101905.31;5025322;28;20287;-75
2024/01/30 08:08:19;;;;;;;8.10;7.40;;;;;;;7.68;78.91;101905.13;5026917;28;20211;-75
2024/01/30 08:10:46;;;;;;;6.97;6.27;;;;;;;7.68;78.18;101897.31;5026014;28;20203;-77
2024/01/30 08:13:12;;;;;;;7.80;7.20;;;;;;;7.65;79.05;101891.19;5021245;28;20282;-77
2024/01/30 08:15:39;;;;;;;8.53;6.67;;;;;;;7.67;79.39;101890.38;5026736;28;20252;-76
2024/01/30 08:18:06;;;;;;;7.17;6.47;;;;;;;7.77;79.39;101870.63;5024656;28;20261;-79
2024/01/30 08:20:34;;;;;;;7.67;7.07;;;;;;;7.78;79.04;101872.34;5028057;28;20202;-78
2024/01/30 08:23:01;;;;;;;11.50;7.97;;;;;;;7.72;79.17;101867.94;5025494;28;20207;-78
2024/01/30 08:25:27;;;;;;;6.73;6.23;;;;;;;7.85;79.75;101853.41;5028187;28;20739;-78
2024/01/30 08:27:54;;;;;;;8.77;7.10;;;;;;;7.84;79.75;101849.06;5026761;28;20198;-78
2024/01/30 08:30:20;;;;;;;8.37;7.53;;;;;;;7.92;79.77;101842.22;5026953;28;20293;-78
2024/01/30 08:32:46;;;;;;;8.27;7.53;;;;;;;7.91;79.88;101837.03;5028179;28;20202;-76
2024/01/30 08:35:13;;;;;;;8.10;7.33;;;;;;;7.85;80.51;101823.91;5022840;28;20222;-78
2024/01/30 08:37:41;;;;;;;8.00;7.30;;;;;;;7.84;81.21;101807.47;5027372;28;20223;-77
2024/01/30 08:40:09;;;;;;;7.90;7.20;;;;;;;7.84;81.02;101791.84;5028344;28;20550;-78
2024/01/30 08:42:35;;;;;;;7.30;6.70;;;;;;;7.97;81.95;101772.13;5033572;28;20211;-77
2024/01/30 08:45:01;;;;;;;8.73;7.93;;;;;;;7.99;80.93;101767.81;5032424;28;20226;-76
2024/01/30 08:47:28;;;;;;;8.57;7.83;;;;;;;8.17;80.16;101782.78;5024309;28;20719;-76
2024/01/30 08:49:54;;;;;;;8.40;7.63;;;;;;;8.26;79.34;101803.69;5032576;28;20210;-76
2024/01/30 08:52:21;;;;;;;8.23;7.57;;;;;;;8.43;78.47;101823.88;5041080;28;20210;-77
2024/01/30 08:54:48;;;;;;;8.37;7.57;;;;;;;8.59;77.65;101856.16;5024503;28;20662;-78
2024/01/30 08:57:15;;;;;;;7.73;6.93;;;;;;;8.66;77.17;101878.78;5033281;28;20218;-77
2024/01/30 08:59:43;;;;;;;7.97;7.27;;;;;;;8.77;76.77;101899.78;5032683;28;20210;-76
2024/01/30 09:02:12;;;;;;;8.40;7.60;;;;;;;8.83;76.91;101908.53;5033150;28;20253;-78
2024/01/30 09:04:38;;;;;;;8.47;7.77;;;;;;;8.86;76.89;101924.19;5035277;28;20662;-77
2024/01/30 09:07:08;;;;;;;8.33;7.63;;;;;;;8.89;76.64;101938.97;5025606;28;20253;-78
2024/01/30 09:09:34;;;;;;;8.63;7.93;;;;;;;8.92;75.87;101950.31;5033388;28;20212;-78
2024/01/30 09:12:06;;;;;;;8.37;7.57;;;;;;;9.03;75.93;101966.03;5027731;28;20238;-78
2024/01/30 09:14:33;;;;;;;7.87;7.20;;;;;;;9.15;75.49;101973.13;5030131;28;20206;-78
2024/01/30 09:16:59;;;;;;;8.40;7.37;;;;;;;9.22;75.33;101981.91;5034030;28;20230;-78
2024/01/30 09:19:26;;;;;;;7.83;7.10;;;;;;;9.31;75.08;101982.00;5033269;28;20635;-77
2024/01/30 09:21:52;;;;;;;7.80;7.20;;;;;;;9.32;74.88;101987.22;5029407;28;20669;-79
2024/01/30 09:24:19;;;;;;;7.23;6.63;;;;;;;9.34;74.12;102010.72;5013418;28;20669;-79
2024/01/30 09:26:45;;;;;;;8.10;7.40;;;;;;;9.46;74.32;102013.44;5012944;28;20277;-76
2024/01/30 09:29:13;;;;;;;10.50;7.80;;;;;;;9.63;73.54;102031.91;5028151;28;20661;-76
2024/01/30 09:31:39;;;;;;;7.70;7.10;;;;;;;9.60;73.88;102037.06;5031778;28;20281;-76
2024/01/30 09:34:06;;;;;;;7.57;6.97;;;;;;;9.70;73.92;102038.03;5032012;28;20260;-76
2024/01/30 09:36:32;;;;;;;8.40;7.80;;;;;;;9.79;76.77;102012.06;5031366;28;20226;-76
2024/01/30 09:38:59;;;;;;;10.40;8.33;;;;;;;10.02;78.83;101948.78;5031455;28;20230;-76
2024/01/30 09:41:25;;;;;;;11.70;7.17;;;;;;;10.26;81.01;101851.50;5023417;28;20270;-76
2024/01/30 09:43:54;;;;;;;11.13;8.40;;;;;;;10.25;76.54;101909.81;5011029;28;20207;-76
2024/01/30 09:46:26;;;;;;;7.40;6.70;;;;;;;10.40;77.79;101901.22;5012025;28;20229;-76
2024/01/30 09:48:53;;;;;;;7.30;6.70;;;;;;;10.42;74.96;101920.38;5023964;28;20254;-76
2024/01/30 09:51:21;;;;;;;8.33;6.93;;;;;;;10.49;75.39;101967.41;5031167;28;20206;-76
2024/01/30 09:53:48;;;;;;;8.00;7.20;;;;;;;10.53;73.88;101983.97;5031244;28;20206;-78
2024/01/30 09:56:15;;;;;;;7.40;6.70;;;;;;;10.45;71.98;102012.63;5024139;28;20226;-78
2024/01/30 09:58:41;;;;;;;7.40;6.80;;;;;;;10.27;70.34;102085.56;5025322;28;20272;-77
2024/01/30 10:01:08;;;;;;;7.37;6.87;;;;;;;10.28;70.81;102102.94;5024988;28;20209;-78
2024/01/30 10:03:36;;;;;;;6.60;6.07;;;;;;;10.28;73.14;102111.63;5026292;28;20199;-77
2024/01/30 10:06:03;;;;;;;7.10;6.50;;;;;;;10.44;71.50;102090.94;5024214;28;20234;-77
2024/01/30 10:08:29;;;;;;;7.93;7.23;;;;;;;10.55;72.79;102091.91;5025019;28;20215;-78
2024/01/30 10:10:56;;;;;;;7.80;7.13;;;;;;;10.58;71.58;102093.66;5026544;28;20241;-78
2024/01/30 10:13:22;;;;;;;7.47;6.87;;;;;;;10.69;72.82;102097.22;5021342;28;20754;-77
2024/01/30 10:15:49;;;;;;;7.83;7.13;;;;;;;10.72;72.21;102103.34;5026445;28;20275;-79
2024/01/30 10:18:15;;;;;;;10.83;7.50;;;;;;;10.75;69.91;102118.16;5026618;28;20266;-79
2024/01/30 10:20:43;;;;;;;8.10;7.30;;;;;;;10.57;72.73;102115.41;5026192;28;20203;-78
2024/01/30 10:23:10;;;;;;;7.20;6.70;;;;;;;10.79;73.61;102079.88;5026647;28;20276;-80
2024/01/30 10:25:36;;;;;;;8.20;7.40;;;;;;;10.94;71.40;102074.72;5028035;28;20233;-79
2024/01/30 10:28:03;;;;;;;7.20;6.60;;;;;;;10.94;72.73;102087.78;5025282;28;20681;-78
2024/01/30 10:30:29;;;;;;;7.40;6.80;;;;;;;11.07;73.53;102039.09;5026340;28;20213;-78
2024/01/30 10:32:55;;;;;;;7.50;6.90;;;;;;;11.15;73.20;102033.91;5026897;28;20218;-77
2024/01/30 10:35:22;;;;;;;7.30;6.70;;;;;;;11.11;71.11;102049.56;5024748;28;20239;-79
2024/01/30 10:37:50;;;;;;;7.50;6.73;;;;;;;11.23;73.88;102061.81;5027353;28;20253;-78
2024/01/30 10:40:17;;;;;;;7.80;7.10;;;;;;;11.17;70.13;102090.56;5026181;28;20211;-78
2024/01/30 10:42:44;;;;;;;7.43;6.73;;;;;;;11.31;70.19;102085.38;5023540;28;20207;-77
2024/01/30 10:45:12;;;;;;;7.23;6.53;;;;;;;11.27;70.33;102121.09;5027825;28;20308;-77
2024/01/30 10:47:41;;;;;;;7.37;6.30;;;;;;;11.27;69.69;102134.16;5029853;28;20200;-77
2024/01/30 10:50:10;;;;;;;7.23;5.93;;;;;;;11.25;69.44;102143.75;5028570;28;20202;-78
2024/01/30 10:52:37;;;;;;;8.50;7.67;;;;;;;11.30;69.29;102134.19;5029653;28;20915;-77
2024/01/30 10:55:07;;;;;;;7.13;6.50;;;;;;;11.42;69.81;102125.53;5028324;28;20228;-77
2024/01/30 10:57:35;;;;;;;7.20;6.60;;;;;;;11.30;68.35;102141.19;5028514;28;20225;-78
2024/01/30 11:00:05;;;;;;;7.50;6.90;;;;;;;11.40;67.85;102153.44;5028792;28;20205;-78
2024/01/30 11:02:32;;;;;;;6.77;6.17;;;;;;;11.53;70.29;102136.03;5028862;28;20617;-78
2024/01/30 11:05:00;;;;;;;8.77;6.73;;;;;;;11.52;70.33;102129.94;5028691;28;20278;-76
2024/01/30 11:07:28;;;;;;;6.57;5.97;;;;;;;11.66;71.67;102122.16;5027565;28;20268;-76
2024/01/30 11:10:03;;;;;;;7.60;7.00;;;;;;;11.71;69.59;102127.38;5029605;28;20249;-78
2024/01/30 11:12:33;;;;;;;7.43;6.70;;;;;;;11.74;68.19;102137.88;5023779;28;20207;-78
2024/01/30 11:15:05;;;;;;;7.47;6.77;;;;;;;11.59;68.19;102171.81;5028399;28;20233;-78
2024/01/30 11:17:43;;;;;;;7.67;6.87;;;;;;;11.61;67.39;102167.47;5027552;28;20229;-77
2024/01/30 11:20:15;;;;;;;7.47;6.80;;;;;;;11.40;66.32;102210.94;5027311;28;20241;-78
2024/01/30 11:22:44;;;;;;;7.10;6.50;;;;;;;11.59;67.72;102184.88;5026837;28;20197;-77
2024/01/30 11:25:14;;;;;;;7.37;6.77;;;;;;;11.64;67.66;102180.56;5028118;28;20314;-78
2024/01/30 11:27:44;;;;;;;7.93;6.80;;;;;;;11.42;68.45;102211.84;5029632;28;20247;-77
2024/01/30 11:30:11;;;;;;;7.30;6.70;;;;;;;11.54;67.43;102190.09;5026666;28;20282;-78